createdAt,value
2022-11-24T00:03:30.058Z,25.50
2022-11-24T00:08:34.329Z,24.50
2022-11-24T00:13:41.591Z,30.90
2022-11-24T00:18:47.522Z,30.80
2022-11-24T00:23:51.822Z,27.80
2022-11-24T00:28:57.642Z,21.60
2022-11-24T00:34:03.825Z,20.30
2022-11-24T00:39:14.850Z,29.80
2022-11-24T00:44:18.133Z,31.30
2022-11-24T00:49:21.549Z,32.90
2022-11-24T00:54:24.962Z,17.10
2022-11-24T00:59:28.379Z,32.10
2022-11-24T01:04:31.946Z,27.20
2022-11-24T01:09:35.517Z,23.60
2022-11-24T01:14:39.652Z,26.00
2022-11-24T01:19:42.864Z,24.10
2022-11-24T01:24:46.278Z,28.10
2022-11-24T01:29:49.489Z,28.40
2022-11-24T01:34:52.802Z,31.40
2022-11-24T01:39:56.219Z,37.90
2022-11-24T01:45:30.664Z,30.30
2022-11-24T01:50:36.013Z,29.00
2022-11-24T01:55:40.159Z,21.80
2022-11-24T02:00:45.415Z,29.90
2022-11-24T02:05:58.148Z,33.20
2022-11-24T02:11:04.636Z,24.80
2022-11-24T02:16:10.886Z,29.40
2022-11-24T02:21:16.359Z,30.40
2022-11-24T02:26:46.834Z,33.20
2022-11-24T02:31:58.541Z,31.20
2022-11-24T02:37:01.756Z,21.50
2022-11-24T02:42:12.750Z,33.00
2022-11-24T02:47:15.962Z,30.50
2022-11-24T02:52:19.684Z,28.50
2022-11-24T02:57:23.682Z,39.00
2022-11-24T03:02:27.004Z,29.20
2022-11-24T03:07:30.376Z,40.50
2022-11-24T03:12:33.759Z,28.40
2022-11-24T03:17:37.277Z,40.10
2022-11-24T03:22:41.841Z,39.10
2022-11-24T03:27:45.437Z,37.30
2022-11-24T03:32:48.755Z,41.60
2022-11-24T03:37:52.043Z,43.70
2022-11-24T03:42:55.481Z,42.10
2022-11-24T03:47:58.698Z,37.20
2022-11-24T03:53:02.008Z,38.00
2022-11-24T03:58:05.322Z,33.90
2022-11-24T04:03:09.358Z,39.90
2022-11-24T04:08:13.457Z,38.10
2022-11-24T04:13:19.465Z,35.80
2022-11-24T04:18:23.184Z,38.20
2022-11-24T04:23:26.501Z,33.80
2022-11-24T04:28:29.816Z,38.10
2022-11-24T04:33:33.438Z,40.60
2022-11-24T04:39:25.933Z,36.30
2022-11-24T04:44:00.027Z,38.20
2022-11-24T04:49:03.446Z,38.00
2022-11-24T04:54:12.527Z,26.10
2022-11-24T04:59:15.909Z,34.00
2022-11-24T05:04:21.669Z,31.30
2022-11-24T05:09:36.916Z,29.30
2022-11-24T05:14:48.368Z,26.90
2022-11-24T05:19:51.577Z,29.80
2022-11-24T05:24:54.796Z,30.60
2022-11-24T05:29:58.101Z,31.70
2022-11-24T05:35:02.544Z,27.30
2022-11-24T05:40:07.265Z,23.10
2022-11-24T05:45:14.031Z,23.60
2022-11-24T05:50:20.706Z,23.00
2022-11-24T05:55:23.784Z,27.40
2022-11-24T06:00:27.610Z,20.90
2022-11-24T06:05:30.913Z,20.90
2022-11-24T06:10:34.023Z,22.90
2022-11-24T06:15:37.973Z,19.30
2022-11-24T06:20:42.143Z,23.00
2022-11-24T06:25:51.304Z,25.20
2022-11-24T06:30:54.752Z,23.00
2022-11-24T06:36:05.850Z,28.30
2022-11-24T06:41:13.286Z,26.10
2022-11-24T06:46:16.330Z,37.30
2022-11-24T06:51:20.181Z,43.40
2022-11-24T06:56:23.160Z,26.60
2022-11-24T07:01:28.420Z,25.10
2022-11-24T07:06:31.569Z,26.10
2022-11-24T07:11:35.358Z,24.30
2022-11-24T07:16:39.657Z,23.70
2022-11-24T07:21:42.633Z,27.20
2022-11-24T07:26:45.946Z,19.40
2022-11-24T07:31:49.118Z,26.00
2022-11-24T07:36:52.372Z,27.20
2022-11-24T07:41:55.580Z,32.40
2022-11-24T07:46:58.598Z,30.90
2022-11-24T07:52:02.008Z,31.00
2022-11-24T07:57:05.221Z,27.00
2022-11-24T08:02:12.402Z,26.50
2022-11-24T08:07:15.413Z,28.90
2022-11-24T08:12:22.702Z,28.00
2022-11-24T08:17:25.739Z,32.40
2022-11-24T08:22:28.847Z,21.20
2022-11-24T08:27:31.960Z,25.60
2022-11-24T08:32:35.165Z,30.00
2022-11-24T08:37:38.277Z,31.50
2022-11-24T08:42:41.286Z,31.80
2022-11-24T08:47:44.393Z,35.20
2022-11-24T08:52:47.605Z,19.20
2022-11-24T08:57:50.715Z,22.10
2022-11-24T09:02:57.891Z,20.20
2022-11-24T09:08:01.128Z,27.10
2022-11-24T09:13:04.650Z,29.00
2022-11-24T09:18:07.758Z,29.80
2022-11-24T09:23:11.476Z,28.00
2022-11-24T09:28:14.584Z,26.80
2022-11-24T09:33:17.692Z,29.70
2022-11-24T09:38:20.813Z,27.60
2022-11-24T09:43:34.050Z,24.30
2022-11-24T09:48:41.666Z,22.20
2022-11-24T09:53:53.682Z,27.40
2022-11-24T09:59:03.246Z,29.90
2022-11-24T10:04:16.621Z,21.80
2022-11-24T10:09:45.833Z,29.70
2022-11-24T10:15:07.360Z,36.20
2022-11-24T10:20:27.355Z,30.20
2022-11-24T10:25:59.152Z,31.20
2022-11-24T10:31:27.712Z,35.00
2022-11-24T10:36:51.211Z,32.00
2022-11-24T10:42:06.013Z,28.20
2022-11-24T10:47:28.244Z,31.80
2022-11-24T10:52:40.389Z,30.10
2022-11-24T10:57:45.226Z,33.40
2022-11-24T11:02:50.698Z,26.70
2022-11-24T11:08:20.050Z,28.50
2022-11-24T11:13:30.874Z,32.80
2022-11-24T11:18:34.232Z,36.80
2022-11-24T11:23:38.160Z,30.00
2022-11-24T11:28:41.273Z,34.00
2022-11-24T11:34:04.145Z,40.70
2022-11-24T11:39:35.070Z,36.30
2022-11-24T11:44:49.008Z,35.80
2022-11-24T11:49:53.120Z,36.60
2022-11-24T11:55:22.316Z,29.50
2022-11-24T12:00:25.425Z,38.50
2022-11-24T12:05:46.559Z,33.00
2022-11-24T12:11:10.087Z,36.40
2022-11-24T12:16:41.823Z,34.70
2022-11-24T12:22:03.467Z,33.90
2022-11-24T12:27:23.289Z,45.50
2022-11-24T12:33:03.957Z,47.80
2022-11-24T12:38:27.772Z,42.60
2022-11-24T12:43:35.781Z,34.60
2022-11-24T12:48:38.677Z,40.60
2022-11-24T12:53:43.478Z,43.30
2022-11-24T12:59:06.606Z,38.30
2022-11-24T13:04:39.205Z,40.60
2022-11-24T13:10:26.365Z,30.90
2022-11-24T13:16:20.598Z,37.00
2022-11-24T13:21:51.870Z,39.70
2022-11-24T13:27:24.631Z,32.80
2022-11-24T13:32:33.675Z,35.90
2022-11-24T13:37:36.788Z,39.80
2022-11-24T13:42:54.845Z,39.50
2022-11-24T13:47:58.058Z,36.50
2022-11-24T13:53:18.060Z,44.70
2022-11-24T13:58:27.621Z,38.90
2022-11-24T14:03:55.478Z,36.40
2022-11-24T14:09:42.651Z,42.00
2022-11-24T14:14:51.456Z,44.00
2022-11-24T14:19:56.970Z,41.70
2022-11-24T14:25:02.412Z,45.70
2022-11-24T14:30:06.464Z,42.80
2022-11-24T14:35:43.667Z,22.60
2022-11-24T14:40:50.256Z,39.00
2022-11-24T14:45:57.298Z,36.80
2022-11-24T14:51:14.678Z,36.50
2022-11-24T14:56:26.411Z,34.90
2022-11-24T15:01:29.847Z,23.40
2022-11-24T15:06:33.146Z,33.90
2022-11-24T15:11:36.356Z,25.40
2022-11-24T15:16:40.196Z,35.80
2022-11-24T15:21:43.492Z,40.20
2022-11-24T15:26:46.905Z,44.80
2022-11-24T15:31:52.839Z,43.70
2022-11-24T15:36:56.607Z,48.70
2022-11-24T15:41:59.820Z,52.40
2022-11-24T15:47:03.052Z,49.80
2022-11-24T15:52:07.060Z,42.40
2022-11-24T15:57:11.066Z,42.40
2022-11-24T16:02:14.201Z,59.00
2022-11-24T16:07:17.446Z,40.90
2022-11-24T16:12:20.622Z,25.20
2022-11-24T16:17:23.726Z,45.60
2022-11-24T16:22:26.732Z,51.90
2022-11-24T16:27:30.045Z,43.00
2022-11-24T16:32:33.056Z,39.40
2022-11-24T16:37:36.474Z,51.10
2022-11-24T16:42:39.696Z,55.60
2022-11-24T16:47:43.196Z,57.90
2022-11-24T16:52:46.316Z,50.30
2022-11-24T16:57:49.423Z,55.60
2022-11-24T17:02:52.472Z,53.50
2022-11-24T17:07:55.759Z,48.00
2022-11-24T17:12:59.068Z,51.20
2022-11-24T17:18:23.474Z,51.00
2022-11-24T17:23:26.247Z,44.90
2022-11-24T17:28:29.950Z,48.90
2022-11-24T17:33:33.096Z,42.20
2022-11-24T17:38:37.091Z,50.10
2022-11-24T17:43:40.234Z,50.70
2022-11-24T17:48:43.440Z,57.30
2022-11-24T17:53:49.565Z,46.30
2022-11-24T17:58:57.955Z,59.50
2022-11-24T18:04:01.480Z,55.90
2022-11-24T18:09:04.584Z,78.50
2022-11-24T18:14:07.790Z,64.90
2022-11-24T18:19:11.510Z,55.50
2022-11-24T18:24:17.488Z,58.90
2022-11-24T18:29:24.396Z,73.90
2022-11-24T18:34:27.601Z,61.10
2022-11-24T18:39:30.707Z,70.10
2022-11-24T18:44:34.406Z,65.90
2022-11-24T18:49:37.649Z,68.80
2022-11-24T18:54:40.868Z,71.20
2022-11-24T18:59:44.070Z,69.90
2022-11-24T19:04:47.281Z,66.50
2022-11-24T19:09:50.384Z,63.10
2022-11-24T19:14:54.725Z,71.10
2022-11-24T19:19:57.838Z,69.80
2022-11-24T19:25:00.949Z,54.10
2022-11-24T19:30:04.526Z,54.20
2022-11-24T19:35:07.948Z,72.50
2022-11-24T19:40:11.521Z,85.90
2022-11-24T19:45:14.619Z,74.60
2022-11-24T19:50:18.635Z,64.20
2022-11-24T19:55:21.845Z,79.00
2022-11-24T20:00:29.107Z,69.00
2022-11-24T20:05:34.886Z,69.10
2022-11-24T20:10:42.485Z,71.00
2022-11-24T20:15:45.646Z,59.50
2022-11-24T20:20:48.672Z,68.40
2022-11-24T20:25:51.873Z,61.60
2022-11-24T20:30:54.974Z,63.60
2022-11-24T20:36:13.136Z,55.40
2022-11-24T20:41:17.984Z,60.60
2022-11-24T20:46:27.238Z,48.20
2022-11-24T20:51:33.322Z,44.60
2022-11-24T20:56:39.869Z,37.90
2022-11-24T21:01:45.585Z,50.10
2022-11-24T21:06:49.404Z,52.10
2022-11-24T21:11:52.573Z,43.20
2022-11-24T21:16:55.652Z,41.90
2022-11-24T21:21:58.730Z,46.40
2022-11-24T21:27:01.742Z,44.00
2022-11-24T21:32:05.483Z,53.80
2022-11-24T21:37:08.569Z,49.40
2022-11-24T21:42:11.783Z,43.50
2022-11-24T21:47:14.888Z,51.50
2022-11-24T21:52:17.999Z,40.90
2022-11-24T21:57:23.255Z,36.40
2022-11-24T22:02:26.345Z,44.00
2022-11-24T22:07:33.032Z,38.30
2022-11-24T22:12:36.061Z,42.40
2022-11-24T22:17:39.123Z,34.00
2022-11-24T22:22:42.278Z,40.40
2022-11-24T22:27:45.297Z,45.30
2022-11-24T22:32:48.396Z,42.00
2022-11-24T22:37:51.900Z,44.40
2022-11-24T22:42:54.921Z,34.10
2022-11-24T22:47:58.098Z,38.30
2022-11-24T22:53:01.340Z,44.00
2022-11-24T22:58:04.354Z,34.10
2022-11-24T23:03:07.386Z,34.10
2022-11-24T23:08:10.564Z,39.80
2022-11-24T23:13:13.775Z,30.60
2022-11-24T23:18:16.785Z,36.50
2022-11-24T23:23:19.898Z,30.60
2022-11-24T23:28:23.000Z,34.50
2022-11-24T23:33:26.107Z,35.30
2022-11-24T23:38:32.549Z,31.90
2022-11-24T23:43:35.816Z,29.80
2022-11-24T23:48:39.810Z,35.20
2022-11-24T23:53:44.176Z,30.40
2022-11-24T23:58:48.121Z,19.00
